Time;durP1;ratioP1;P1;durP2;ratioP2;P2;SDS_P1;SDS_P2;PMS_P1;PMS_P2;Temp;Humidity;BMP_temperature;BMP_pressure;BME280_temperature;BME280_humidity;BME280_pressure;Samples;Min_cycle;Max_cycle;Signal;HPM_P1;HPM_P2
2021/03/16 00:02:26;;;;;;;21.45;3.15;;;;;;;5.38;100.00;102333.03;5202677;28;20035;-67
2021/03/16 00:04:57;;;;;;;23.33;2.85;;;;;;;5.38;100.00;102327.69;5203855;28;20100;-67
2021/03/16 00:07:27;;;;;;;19.10;2.60;;;;;;;5.31;100.00;102335.19;5203120;28;20021;-68
2021/03/16 00:09:58;;;;;;;24.30;4.22;;;;;;;5.26;100.00;102334.63;5204365;28;20029;-67
2021/03/16 00:12:28;;;;;;;23.23;3.40;;;;;;;5.25;100.00;102337.38;5202636;28;20375;-68
2021/03/16 00:14:59;;;;;;;40.25;6.25;;;;;;;5.32;100.00;102333.38;5203142;28;20033;-66
2021/03/16 00:17:29;;;;;;;33.55;3.60;;;;;;;5.34;100.00;102335.00;5203022;28;20033;-67
2021/03/16 00:20:00;;;;;;;21.27;2.58;;;;;;;5.35;100.00;102335.88;5203651;28;20079;-68
2021/03/16 00:22:30;;;;;;;24.38;3.13;;;;;;;5.30;100.00;102333.47;5203321;28;20032;-68
2021/03/16 00:25:01;;;;;;;18.42;2.90;;;;;;;5.35;100.00;102339.38;5203628;28;20478;-67
2021/03/16 00:27:31;;;;;;;20.88;2.53;;;;;;;5.30;100.00;102343.28;5202237;28;20030;-68
2021/03/16 00:30:03;;;;;;;17.17;3.30;;;;;;;5.35;100.00;102341.19;5202703;28;20063;-68
2021/03/16 00:32:33;;;;;;;36.22;3.33;;;;;;;5.29;100.00;102339.75;5203131;28;20399;-67
2021/03/16 00:35:04;;;;;;;22.63;3.97;;;;;;;5.25;100.00;102340.91;5203346;28;20025;-68
2021/03/16 00:37:35;;;;;;;19.38;2.95;;;;;;;5.27;100.00;102346.13;5202527;28;20108;-67
2021/03/16 00:40:07;;;;;;;20.85;3.83;;;;;;;5.26;100.00;102345.25;5202126;28;20147;-67
2021/03/16 00:42:37;;;;;;;21.02;2.90;;;;;;;5.20;100.00;102348.31;5202450;28;20029;-67
2021/03/16 00:45:09;;;;;;;18.30;2.65;;;;;;;5.22;100.00;102348.22;5203628;28;20018;-68
2021/03/16 00:47:39;;;;;;;19.33;3.13;;;;;;;5.24;100.00;102349.84;5202783;28;20027;-68
2021/03/16 00:50:11;;;;;;;21.92;2.85;;;;;;;5.19;100.00;102355.44;5202867;28;20041;-68
2021/03/16 00:52:42;;;;;;;23.50;3.55;;;;;;;5.15;100.00;102353.91;5201936;28;20036;-67
2021/03/16 00:55:13;;;;;;;22.08;2.97;;;;;;;5.18;100.00;102355.56;5202914;28;20385;-67
2021/03/16 00:57:43;;;;;;;30.75;3.58;;;;;;;5.12;100.00;102350.56;5202323;28;20029;-67
2021/03/16 01:00:14;;;;;;;31.45;5.38;;;;;;;5.11;100.00;102355.03;5202491;28;20061;-68
2021/03/16 01:02:44;;;;;;;17.60;2.88;;;;;;;5.14;100.00;102362.84;5201968;28;20021;-68
2021/03/16 01:05:15;;;;;;;28.42;5.00;;;;;;;5.05;100.00;102360.75;5202132;28;20024;-68
2021/03/16 01:07:45;;;;;;;26.83;3.53;;;;;;;5.02;100.00;102368.06;5202469;28;20021;-67
2021/03/16 01:10:18;;;;;;;21.95;4.68;;;;;;;5.01;100.00;102366.34;5201842;28;20028;-68
2021/03/16 01:12:48;;;;;;;24.60;4.20;;;;;;;4.97;100.00;102375.44;5202297;28;20040;-68
2021/03/16 01:15:19;;;;;;;22.38;3.60;;;;;;;5.03;100.00;102373.31;5202643;28;20021;-68
2021/03/16 01:17:49;;;;;;;33.15;4.97;;;;;;;4.96;100.00;102379.91;5201873;28;20026;-68
2021/03/16 01:20:22;;;;;;;34.35;6.47;;;;;;;5.01;100.00;102375.19;5201505;28;20274;-68
2021/03/16 01:22:54;;;;;;;35.08;5.20;;;;;;;4.99;100.00;102381.56;5201543;28;20021;-68
2021/03/16 01:25:24;;;;;;;31.05;4.35;;;;;;;5.06;100.00;102375.75;5200485;28;20436;-68
2021/03/16 01:27:55;;;;;;;23.38;3.85;;;;;;;4.99;100.00;102373.56;5201420;28;20041;-67
2021/03/16 01:30:26;;;;;;;31.48;4.15;;;;;;;4.93;100.00;102369.50;5200234;28;20029;-67
2021/03/16 01:32:56;;;;;;;22.35;5.10;;;;;;;4.96;100.00;102373.75;5201601;28;20027;-67
2021/03/16 01:35:27;;;;;;;19.42;3.90;;;;;;;4.92;100.00;102376.63;5202299;28;20044;-67
2021/03/16 01:37:57;;;;;;;31.10;4.43;;;;;;;4.90;100.00;102367.00;5201579;28;20032;-68
2021/03/16 01:40:36;;;;;;;31.73;3.70;;;;;;;4.92;100.00;102367.78;5201061;28;20124;-67
2021/03/16 01:43:11;;;;;;;25.95;3.63;;;;;;;4.85;100.00;102371.75;5201387;28;20025;-67
2021/03/16 01:45:44;;;;;;;33.27;5.60;;;;;;;4.82;100.00;102379.88;5202078;28;20033;-68
2021/03/16 01:48:19;;;;;;;38.45;5.45;;;;;;;4.80;100.00;102371.16;5201019;28;20136;-68
2021/03/16 01:50:50;;;;;;;;;;;;;;;4.81;100.00;102375.53;5201672;28;20030;-68
2021/03/16 01:53:21;;;;;;;21.88;4.13;;;;;;;4.77;100.00;102374.00;5201804;28;19909;-67
2021/03/16 01:55:54;;;;;;;34.63;4.10;;;;;;;4.82;100.00;102382.53;5201807;28;20500;-68
2021/03/16 01:58:24;;;;;;;37.17;4.72;;;;;;;4.75;100.00;102378.56;5201497;28;20116;-68
2021/03/16 02:00:55;;;;;;;28.73;4.55;;;;;;;4.72;100.00;102376.94;5201072;28;20379;-68
2021/03/16 02:03:27;;;;;;;34.20;4.88;;;;;;;4.69;100.00;102379.78;5201211;28;20123;-67
2021/03/16 02:05:57;;;;;;;25.77;3.97;;;;;;;4.74;100.00;102374.19;5202195;28;20028;-67
2021/03/16 02:08:41;;;;;;;31.63;3.72;;;;;;;4.72;100.00;102379.59;5201620;28;20108;-68
2021/03/16 02:11:24;;;;;;;36.80;5.97;;;;;;;4.71;100.00;102375.22;5201522;28;20025;-67
2021/03/16 02:14:12;;;;;;;22.95;4.50;;;;;;;4.71;100.00;102382.34;5200711;28;20076;-67
2021/03/16 02:16:55;;;;;;;31.90;3.78;;;;;;;4.72;100.00;102370.75;5201712;28;20068;-67
2021/03/16 02:20:02;;;;;;;39.10;5.60;;;;;;;4.79;100.00;102364.13;5189221;28;20425;-67
2021/03/16 02:22:36;;;;;;;26.20;3.55;;;;;;;4.78;100.00;102376.59;5190066;28;20037;-67
2021/03/16 02:25:28;;;;;;;26.60;5.72;;;;;;;4.71;100.00;102385.84;5201285;28;20045;-67
2021/03/16 02:28:07;;;;;;;28.05;5.30;;;;;;;4.73;100.00;102377.81;5201048;28;20030;-68
2021/03/16 02:30:41;;;;;;;20.83;3.80;;;;;;;4.80;100.00;102385.31;5190838;28;20053;-67
2021/03/16 02:33:17;;;;;;;21.10;3.05;;;;;;;4.83;100.00;102378.97;5200965;28;20037;-68
2021/03/16 02:35:52;;;;;;;21.85;3.30;;;;;;;4.84;100.00;102391.31;5201641;28;20028;-67
2021/03/16 02:38:26;;;;;;;25.30;4.03;;;;;;;4.83;100.00;102377.16;5200800;28;20049;-67
2021/03/16 02:41:00;;;;;;;27.38;3.97;;;;;;;4.82;100.00;102380.78;5200492;28;20517;-67
2021/03/16 02:43:31;;;;;;;27.05;3.90;;;;;;;4.79;100.00;102386.25;5201246;28;20033;-67
2021/03/16 02:46:05;;;;;;;29.75;3.05;;;;;;;4.77;100.00;102392.59;5201522;28;20048;-67
2021/03/16 02:48:38;;;;;;;22.00;3.00;;;;;;;4.80;100.00;102387.13;5201450;28;20025;-68
2021/03/16 02:51:18;;;;;;;20.60;3.53;;;;;;;4.84;100.00;102383.34;5200381;28;20026;-67
2021/03/16 02:53:55;;;;;;;18.35;3.65;;;;;;;4.85;100.00;102385.88;5199798;28;20025;-68
2021/03/16 02:56:32;;;;;;;32.85;3.75;;;;;;;4.81;100.00;102387.00;5201524;28;20025;-68
2021/03/16 02:59:04;;;;;;;27.75;3.60;;;;;;;4.80;100.00;102389.78;5200806;28;20025;-68
2021/03/16 03:01:36;;;;;;;25.08;3.72;;;;;;;4.92;100.00;102391.72;5204368;28;20017;-68
2021/03/16 03:04:09;;;;;;;23.63;3.33;;;;;;;4.86;100.00;102386.75;5204539;28;20051;-66
2021/03/16 03:06:42;;;;;;;26.55;3.33;;;;;;;4.79;100.00;102390.72;5204001;28;20030;-67
2021/03/16 03:09:14;;;;;;;17.88;3.03;;;;;;;4.88;100.00;102388.38;5204171;28;20432;-67
2021/03/16 03:11:44;;;;;;;21.38;3.17;;;;;;;4.83;100.00;102390.47;5204827;28;20406;-68
2021/03/16 03:14:15;;;;;;;26.05;3.42;;;;;;;4.83;100.00;102390.47;5203863;28;20025;-68
2021/03/16 03:16:46;;;;;;;24.60;2.75;;;;;;;4.82;100.00;102394.06;5204661;28;20029;-67
2021/03/16 03:19:16;;;;;;;24.90;3.53;;;;;;;4.81;100.00;102402.97;5203027;28;20076;-67
2021/03/16 03:22:17;;;;;;;15.85;2.92;;;;;;;4.78;100.00;102400.50;5219546;28;20087;-68
2021/03/16 03:24:55;;;;;;;25.15;3.65;;;;;;;4.84;100.00;102401.94;5203611;28;20505;-68
2021/03/16 03:27:30;;;;;;;20.90;2.60;;;;;;;4.85;100.00;102404.50;5204647;28;20025;-67
2021/03/16 03:30:04;;;;;;;20.67;2.80;;;;;;;4.83;100.00;102406.41;5203638;28;20068;-67
2021/03/16 03:32:37;;;;;;;20.98;3.17;;;;;;;4.79;100.00;102404.03;5204451;28;20487;-68
2021/03/16 03:35:08;;;;;;;27.95;3.20;;;;;;;4.79;100.00;102401.38;5203492;28;20571;-67
2021/03/16 03:37:40;;;;;;;19.75;3.08;;;;;;;4.89;100.00;102410.50;5204596;28;20018;-67
2021/03/16 03:40:12;;;;;;;18.45;2.30;;;;;;;4.78;100.00;102408.50;5203767;28;20112;-67
2021/03/16 03:42:44;;;;;;;24.90;4.07;;;;;;;4.77;100.00;102411.22;5204267;28;20030;-67
2021/03/16 03:45:15;;;;;;;28.98;3.70;;;;;;;4.76;100.00;102410.38;5203789;28;20083;-68
2021/03/16 03:47:46;;;;;;;21.15;2.83;;;;;;;4.75;100.00;102413.97;5203925;28;20029;-67
2021/03/16 03:50:17;;;;;;;30.65;3.25;;;;;;;4.77;100.00;102405.91;5202243;28;20049;-68
2021/03/16 03:52:49;;;;;;;18.65;3.20;;;;;;;4.74;100.00;102406.94;5200750;28;20472;-68
2021/03/16 03:55:21;;;;;;;16.63;2.40;;;;;;;4.76;100.00;102414.81;5203446;28;20081;-67
2021/03/16 03:57:53;;;;;;;19.05;2.78;;;;;;;4.82;100.00;102412.69;5203446;28;20040;-67
2021/03/16 04:00:24;;;;;;;20.65;2.67;;;;;;;4.74;100.00;102414.94;5203339;28;20025;-67
2021/03/16 04:02:56;;;;;;;14.05;2.78;;;;;;;4.78;100.00;102411.16;5204023;28;20413;-67
2021/03/16 04:05:27;;;;;;;25.35;2.97;;;;;;;4.79;100.00;102415.50;5203476;28;20029;-67
2021/03/16 04:07:59;;;;;;;16.08;2.80;;;;;;;4.73;100.00;102404.38;5203816;28;20029;-68
2021/03/16 04:10:30;;;;;;;23.67;4.65;;;;;;;4.78;100.00;102403.16;5201120;28;20444;-68
2021/03/16 04:13:01;;;;;;;12.60;2.35;;;;;;;4.77;100.00;102412.09;5203233;28;20049;-66
2021/03/16 04:15:32;;;;;;;21.63;2.38;;;;;;;4.77;100.00;102400.56;5202889;28;20548;-68
2021/03/16 04:18:04;;;;;;;12.93;2.15;;;;;;;4.77;100.00;102412.09;5203806;28;20017;-67
2021/03/16 04:20:34;;;;;;;9.85;2.33;;;;;;;4.82;100.00;102411.78;5214320;28;20029;-67
2021/03/16 04:23:05;;;;;;;24.38;2.30;;;;;;;4.78;100.00;102408.50;5203491;28;20104;-67
2021/03/16 04:25:36;;;;;;;15.48;2.67;;;;;;;4.70;100.00;102413.38;5203193;28;20029;-66
2021/03/16 04:28:06;;;;;;;15.00;2.30;;;;;;;4.64;100.00;102417.25;5202929;28;20029;-67
2021/03/16 04:30:36;;;;;;;17.85;2.03;;;;;;;4.69;100.00;102422.31;5201186;28;20029;-67
2021/03/16 04:33:08;;;;;;;18.88;3.05;;;;;;;4.65;100.00;102418.13;5201908;28;20029;-67
2021/03/16 04:35:39;;;;;;;19.85;2.92;;;;;;;4.71;100.00;102415.09;5202450;28;20032;-67
2021/03/16 04:38:09;;;;;;;17.35;2.40;;;;;;;4.68;100.00;102423.28;5203028;28;20312;-67
2021/03/16 04:40:41;;;;;;;11.98;2.22;;;;;;;4.68;100.00;102425.94;5202311;28;20124;-68
2021/03/16 04:43:12;;;;;;;23.35;2.28;;;;;;;4.71;100.00;102425.72;5202974;28;20053;-66
2021/03/16 04:45:42;;;;;;;12.80;2.67;;;;;;;4.74;100.00;102436.19;5202476;28;20106;-67
2021/03/16 04:48:13;;;;;;;21.67;2.10;;;;;;;4.70;100.00;102437.31;5201622;28;20041;-67
2021/03/16 04:50:43;;;;;;;11.63;2.13;;;;;;;4.73;100.00;102439.81;5201954;28;20018;-67
2021/03/16 04:53:14;;;;;;;16.58;2.28;;;;;;;4.77;100.00;102454.66;5203185;28;20018;-67
2021/03/16 04:55:44;;;;;;;15.90;2.35;;;;;;;4.83;100.00;102454.28;5202636;28;20548;-68
2021/03/16 04:58:15;;;;;;;15.30;2.03;;;;;;;4.80;100.00;102457.09;5202546;28;20482;-68
2021/03/16 05:00:45;;;;;;;22.35;2.28;;;;;;;4.84;100.00;102458.63;5201648;28;20086;-68
2021/03/16 05:03:15;;;;;;;10.18;2.50;;;;;;;4.89;100.00;102463.69;5202522;28;20064;-68
2021/03/16 05:05:46;;;;;;;13.70;1.95;;;;;;;4.89;100.00;102445.94;5202389;28;20373;-67
2021/03/16 05:08:16;;;;;;;11.68;1.98;;;;;;;4.94;100.00;102443.00;5203103;28;20036;-68
2021/03/16 05:10:47;;;;;;;20.27;3.53;;;;;;;4.91;100.00;102454.66;5199853;28;20037;-67
2021/03/16 05:13:19;;;;;;;23.98;2.60;;;;;;;4.92;100.00;102456.41;5202890;28;20029;-68
2021/03/16 05:15:50;;;;;;;20.30;2.58;;;;;;;4.98;100.00;102449.00;5201942;28;20031;-66
2021/03/16 05:18:21;;;;;;;15.90;3.03;;;;;;;4.94;100.00;102446.50;5201422;28;20454;-68
2021/03/16 05:20:51;;;;;;;13.43;2.17;;;;;;;4.92;100.00;102456.41;5199788;28;20032;-67
2021/03/16 05:23:22;;;;;;;19.00;2.88;;;;;;;4.92;100.00;102458.22;5200597;28;20021;-66
2021/03/16 05:25:52;;;;;;;37.45;13.25;;;;;;;4.92;100.00;102466.19;5202224;28;20071;-68
2021/03/16 05:28:23;;;;;;;24.42;9.10;;;;;;;4.89;100.00;102459.22;5201975;28;20436;-67
2021/03/16 05:30:53;;;;;;;21.77;9.02;;;;;;;4.87;100.00;102461.13;5201573;28;20112;-66
2021/03/16 05:33:24;;;;;;;26.45;11.82;;;;;;;4.87;100.00;102461.13;5202152;28;20428;-67
2021/03/16 05:35:54;;;;;;;39.47;16.27;;;;;;;4.92;100.00;102464.38;5201371;28;20581;-66
2021/03/16 05:38:25;;;;;;;27.45;7.00;;;;;;;4.90;100.00;102476.88;5202182;28;20029;-69
2021/03/16 05:40:56;;;;;;;29.02;13.00;;;;;;;4.93;100.00;102473.22;5201360;28;20022;-70
2021/03/16 05:43:27;;;;;;;24.27;7.57;;;;;;;4.87;100.00;102466.44;5202121;28;20029;-69
2021/03/16 05:45:57;;;;;;;33.45;9.82;;;;;;;4.87;100.00;102473.53;5201685;28;20033;-67
2021/03/16 05:48:29;;;;;;;22.77;3.88;;;;;;;4.86;100.00;102475.34;5201676;28;20402;-68
2021/03/16 05:51:00;;;;;;;23.75;5.03;;;;;;;4.87;100.00;102476.19;5201368;28;20029;-67
2021/03/16 05:53:31;;;;;;;25.55;6.05;;;;;;;4.89;100.00;102483.16;5202230;28;20029;-67
2021/03/16 05:56:02;;;;;;;19.58;4.80;;;;;;;4.83;100.00;102482.69;5201639;28;20504;-67
2021/03/16 05:58:35;;;;;;;25.25;5.13;;;;;;;4.85;100.00;102486.94;5201802;28;20021;-67
2021/03/16 06:01:05;;;;;;;19.52;6.18;;;;;;;4.90;100.00;102490.19;5199569;28;20101;-67
2021/03/16 06:03:36;;;;;;;27.90;5.65;;;;;;;4.90;100.00;102484.88;5201940;28;20120;-67
2021/03/16 06:06:09;;;;;;;30.23;4.57;;;;;;;4.88;100.00;102488.59;5201273;28;20116;-67
2021/03/16 06:08:40;;;;;;;27.48;6.43;;;;;;;4.97;100.00;102487.16;5201763;28;20021;-67
2021/03/16 06:11:11;;;;;;;22.65;5.13;;;;;;;4.87;100.00;102481.53;5200703;28;20474;-67
2021/03/16 06:13:50;;;;;;;31.50;6.00;;;;;;;4.91;100.00;102483.06;5201921;28;20021;-66
2021/03/16 06:16:23;;;;;;;26.63;5.47;;;;;;;4.83;100.00;102486.19;5201436;28;20018;-67
2021/03/16 06:18:53;;;;;;;30.23;6.25;;;;;;;4.84;100.00;102485.22;5201275;28;20052;-67
2021/03/16 06:21:24;;;;;;;20.98;7.53;;;;;;;5.00;100.00;102494.97;5200924;28;20053;-66
2021/03/16 06:23:58;;;;;;;36.80;6.97;;;;;;;4.96;100.00;102496.09;5201026;28;20457;-68
2021/03/16 06:26:32;;;;;;;36.05;9.88;;;;;;;4.88;100.00;102493.91;5216520;28;20109;-67
2021/03/16 06:29:04;;;;;;;27.50;6.85;;;;;;;4.82;100.00;102497.78;5201537;28;20458;-67
2021/03/16 06:31:35;;;;;;;35.40;8.50;;;;;;;4.92;100.00;102501.63;5200488;28;20030;-66
2021/03/16 06:34:06;;;;;;;30.48;7.22;;;;;;;4.89;100.00;102498.28;5201391;28;20612;-67
2021/03/16 06:36:36;;;;;;;24.83;7.88;;;;;;;4.92;100.00;102495.44;5205236;28;20113;-67
2021/03/16 06:39:16;;;;;;;25.38;5.75;;;;;;;4.91;100.00;102504.34;5205597;28;20413;-67
2021/03/16 06:41:47;;;;;;;34.60;6.32;;;;;;;4.92;100.00;102506.09;5205077;28;20442;-67
2021/03/16 06:44:19;;;;;;;48.40;6.57;;;;;;;5.05;100.00;102507.06;5205384;28;20108;-66
2021/03/16 06:46:54;;;;;;;30.50;5.20;;;;;;;5.03;100.00;102506.31;5204555;28;20033;-68
2021/03/16 06:49:25;;;;;;;28.67;5.38;;;;;;;5.02;100.00;102509.91;5205269;28;20092;-68
2021/03/16 06:51:56;;;;;;;26.50;5.82;;;;;;;5.05;100.00;102515.03;5204595;28;20075;-68
2021/03/16 06:54:27;;;;;;;27.75;5.47;;;;;;;5.03;100.00;102514.28;5204116;28;20029;-67
2021/03/16 06:57:00;;;;;;;39.25;8.18;;;;;;;5.17;100.00;102511.66;5204426;28;20433;-68
2021/03/16 06:59:32;;;;;;;31.85;6.43;;;;;;;5.18;100.00;102512.53;5205011;28;20060;-68
2021/03/16 07:02:12;;;;;;;32.75;5.57;;;;;;;5.21;100.00;102517.66;5202887;28;20036;-68
2021/03/16 07:04:44;;;;;;;32.20;5.63;;;;;;;5.20;100.00;102516.78;5193998;28;20025;-67
2021/03/16 07:07:15;;;;;;;25.88;5.05;;;;;;;5.22;100.00;102518.50;5204577;28;20481;-67
2021/03/16 07:09:46;;;;;;;58.70;27.13;;;;;;;5.25;100.00;102524.50;5204387;28;20022;-68
2021/03/16 07:12:20;;;;;;;56.15;21.48;;;;;;;5.23;100.00;102510.44;5204172;28;20029;-67
2021/03/16 07:14:51;;;;;;;31.92;6.95;;;;;;;5.30;100.00;102509.13;5204936;28;20065;-67
2021/03/16 07:17:22;;;;;;;37.80;14.75;;;;;;;5.37;100.00;102518.47;5203833;28;20529;-68
2021/03/16 07:20:01;;;;;;;27.83;9.98;;;;;;;5.40;100.00;102517.41;5204144;28;20112;-68
2021/03/16 07:22:37;;;;;;;34.67;8.27;;;;;;;5.43;100.00;102523.41;5204427;28;20021;-68
2021/03/16 07:25:08;;;;;;;23.15;4.70;;;;;;;5.44;100.00;102530.44;5204357;28;20036;-67
2021/03/16 07:27:40;;;;;;;26.98;6.22;;;;;;;5.48;100.00;102524.97;5204170;28;20116;-68
2021/03/16 07:30:13;;;;;;;28.55;6.97;;;;;;;5.43;100.00;102523.41;5203728;28;20115;-67
2021/03/16 07:32:44;;;;;;;22.20;5.18;;;;;;;5.41;100.00;102541.25;5203497;28;20504;-68
2021/03/16 07:35:15;;;;;;;28.00;5.60;;;;;;;5.41;100.00;102532.44;5204226;28;20134;-68
2021/03/16 07:37:46;;;;;;;26.45;6.40;;;;;;;5.50;100.00;102528.38;5204116;28;20034;-68
2021/03/16 07:40:17;;;;;;;25.58;5.05;;;;;;;5.51;100.00;102536.25;5204076;28;20071;-68
2021/03/16 07:42:49;;;;;;;29.13;4.63;;;;;;;5.49;100.00;102540.81;5203445;28;20056;-68
2021/03/16 07:45:25;;;;;;;23.33;5.10;;;;;;;5.55;100.00;102543.13;5204664;28;20028;-67
2021/03/16 07:47:56;;;;;;;32.22;5.43;;;;;;;5.48;100.00;102546.25;5203265;28;20150;-68
2021/03/16 07:50:29;;;;;;;22.52;5.28;;;;;;;5.48;100.00;102546.25;5203860;28;20108;-68
2021/03/16 07:52:59;;;;;;;20.17;4.85;;;;;;;5.57;100.00;102540.34;5203532;28;20087;-67
2021/03/16 07:55:30;;;;;;;24.67;5.07;;;;;;;5.47;100.00;102550.69;5203627;28;20056;-68
2021/03/16 07:58:07;;;;;;;29.20;9.13;;;;;;;5.59;100.00;102549.13;5203545;28;20030;-68
2021/03/16 08:00:38;;;;;;;25.58;6.63;;;;;;;5.62;100.00;102552.47;5192752;28;20445;-68
2021/03/16 08:03:09;;;;;;;22.67;6.18;;;;;;;5.59;100.00;102546.47;5193529;28;20100;-68
2021/03/16 08:05:41;;;;;;;17.60;5.70;;;;;;;5.65;100.00;102543.41;5202516;28;20035;-68
2021/03/16 08:08:15;;;;;;;25.48;6.40;;;;;;;5.64;100.00;102547.03;5201579;28;20108;-68
2021/03/16 08:10:47;;;;;;;21.08;4.53;;;;;;;5.69;100.00;102552.94;5201735;28;20482;-68
2021/03/16 08:13:18;;;;;;;25.63;6.07;;;;;;;5.68;100.00;102548.56;5202082;28;20075;-68
2021/03/16 08:15:50;;;;;;;23.88;5.55;;;;;;;5.76;100.00;102550.75;5202047;28;20029;-67
2021/03/16 08:18:28;;;;;;;27.27;5.22;;;;;;;5.79;100.00;102556.75;5200502;28;20025;-68
2021/03/16 08:21:10;;;;;;;26.83;5.32;;;;;;;5.87;100.00;102550.94;5201846;28;20037;-68
2021/03/16 08:23:41;;;;;;;35.10;5.07;;;;;;;5.98;100.00;102559.19;5201622;28;20028;-67
2021/03/16 08:26:15;;;;;;;24.27;5.32;;;;;;;6.01;100.00;102561.63;5201993;28;20029;-68
2021/03/16 08:28:47;;;;;;;36.53;10.25;;;;;;;6.10;100.00;102563.75;5200535;28;20056;-68
2021/03/16 08:31:18;;;;;;;21.50;4.82;;;;;;;6.09;100.00;102563.84;5200647;28;20037;-68
2021/03/16 08:33:49;;;;;;;19.40;5.00;;;;;;;6.10;100.00;102555.75;5202493;28;20026;-68
2021/03/16 08:36:19;;;;;;;15.75;4.50;;;;;;;6.08;100.00;102564.81;5201858;28;20025;-68
2021/03/16 08:38:52;;;;;;;14.32;3.78;;;;;;;6.11;100.00;102559.25;5201643;28;20040;-68
2021/03/16 08:41:22;;;;;;;19.63;5.63;;;;;;;6.13;100.00;102558.22;5200926;28;20347;-68
2021/03/16 08:43:53;;;;;;;26.02;6.13;;;;;;;6.13;100.00;102560.91;5201660;28;20035;-68
2021/03/16 08:46:33;;;;;;;26.38;4.25;;;;;;;6.10;100.00;102565.56;5201666;28;20025;-68
2021/03/16 08:49:03;;;;;;;19.10;5.10;;;;;;;6.09;100.00;102570.03;5200936;28;20037;-68
2021/03/16 08:51:34;;;;;;;25.88;4.70;;;;;;;6.10;100.00;102570.88;5200862;28;20028;-68
2021/03/16 08:54:05;;;;;;;17.00;3.95;;;;;;;6.10;100.00;102570.88;5200825;28;20046;-68
2021/03/16 08:56:35;;;;;;;15.18;4.13;;;;;;;5.99;100.00;102568.03;5201590;28;20021;-68
2021/03/16 08:59:06;;;;;;;18.50;4.30;;;;;;;5.93;100.00;102564.78;5200123;28;20041;-68
2021/03/16 09:01:36;;;;;;;18.48;3.60;;;;;;;5.95;100.00;102564.69;5200908;28;20030;-68
2021/03/16 09:04:09;;;;;;;17.80;3.63;;;;;;;6.02;100.00;102566.00;5200434;28;20025;-68
2021/03/16 09:06:40;;;;;;;15.30;4.22;;;;;;;5.96;100.00;102575.25;5201498;28;20048;-67
2021/03/16 09:09:11;;;;;;;14.60;3.13;;;;;;;5.90;100.00;102574.75;5200143;28;20041;-68
2021/03/16 09:11:43;;;;;;;9.55;2.10;;;;;;;5.93;100.00;102570.13;5200647;28;20057;-68
2021/03/16 09:14:16;;;;;;;10.93;2.13;;;;;;;5.95;100.00;102576.19;5201011;28;20104;-68
2021/03/16 09:16:51;;;;;;;37.60;14.88;;;;;;;6.03;100.00;102578.41;5200019;28;20056;-68
2021/03/16 09:19:26;;;;;;;25.15;9.40;;;;;;;6.05;100.00;102578.31;5206603;28;20017;-68
2021/03/16 09:22:00;;;;;;;18.83;3.35;;;;;;;6.17;100.00;102583.72;5203524;28;20036;-71
2021/03/16 09:24:32;;;;;;;19.50;6.38;;;;;;;6.11;100.00;102591.25;5200485;28;20021;-69
2021/03/16 09:27:06;;;;;;;9.30;4.88;;;;;;;6.03;100.00;102582.88;5199985;28;20026;-68
2021/03/16 09:29:38;;;;;;;9.02;5.00;;;;;;;5.93;100.00;102585.25;5199095;28;20626;-67
2021/03/16 09:32:10;;;;;;;12.63;3.75;;;;;;;5.83;100.00;102576.06;5200404;28;20485;-68
2021/03/16 09:34:45;;;;;;;11.43;4.10;;;;;;;5.71;100.00;102577.66;5200127;28;20060;-68
2021/03/16 09:37:18;;;;;;;12.95;4.05;;;;;;;5.64;100.00;102589.63;5200993;28;20025;-68
2021/03/16 09:39:57;;;;;;;8.88;3.72;;;;;;;5.69;100.00;102577.75;5198898;28;20027;-67
2021/03/16 09:42:33;;;;;;;9.13;3.28;;;;;;;5.43;100.00;102581.97;5200379;28;20036;-68
2021/03/16 09:45:15;;;;;;;15.25;4.63;;;;;;;5.42;100.00;102580.28;5200311;28;20116;-68
2021/03/16 09:47:46;;;;;;;17.33;4.93;;;;;;;5.37;100.00;102579.69;5199811;28;20047;-68
2021/03/16 09:50:20;;;;;;;14.70;5.25;;;;;;;5.44;100.00;102575.69;5199766;28;20031;-68
2021/03/16 09:52:59;;;;;;;19.35;5.88;;;;;;;5.45;100.00;102577.41;5199986;28;20036;-68
2021/03/16 09:55:31;;;;;;;17.05;5.95;;;;;;;5.33;100.00;102572.81;5200378;28;20037;-67
2021/03/16 09:58:02;;;;;;;14.45;6.72;;;;;;;5.36;100.00;102580.59;5198794;28;20030;-68
2021/03/16 10:00:32;;;;;;;13.88;5.90;;;;;;;5.45;100.00;102577.41;5199237;28;20056;-68
2021/03/16 10:03:06;;;;;;;14.82;5.45;;;;;;;5.55;100.00;102575.06;5198835;28;20018;-68
2021/03/16 10:05:36;;;;;;;10.27;5.28;;;;;;;5.57;100.00;102578.50;5200007;28;20021;-68
2021/03/16 10:08:07;;;;;;;17.30;5.70;;;;;;;5.69;100.00;102564.44;5200278;28;20045;-68
2021/03/16 10:10:38;;;;;;;16.20;5.63;;;;;;;5.83;100.00;102573.41;5202186;28;20497;-68
2021/03/16 10:13:08;;;;;;;19.10;6.15;;;;;;;6.03;100.00;102573.06;5204009;28;20041;-68
2021/03/16 10:15:41;;;;;;;15.40;4.72;;;;;;;6.10;100.00;102569.06;5204296;28;20106;-68
2021/03/16 10:18:14;;;;;;;12.32;5.38;;;;;;;6.19;100.00;102572.97;5204240;28;20029;-67
2021/03/16 10:20:46;;;;;;;12.90;4.20;;;;;;;6.31;100.00;102561.53;5214864;28;20021;-67
2021/03/16 10:23:19;;;;;;;9.27;3.08;;;;;;;6.52;100.00;102569.13;5203429;28;20029;-68
2021/03/16 10:25:57;;;;;;;9.50;2.53;;;;;;;6.67;100.00;102565.47;5203995;28;20104;-67
2021/03/16 10:28:37;;;;;;;9.00;2.00;;;;;;;6.74;100.00;102562.31;5202874;28;20037;-67
2021/03/16 10:31:10;;;;;;;8.05;1.38;;;;;;;6.84;100.00;102562.59;5203324;28;20021;-67
2021/03/16 10:33:42;;;;;;;3.08;0.90;;;;;;;7.00;100.00;102563.28;5201502;28;20030;-68
2021/03/16 10:36:13;;;;;;;2.15;0.50;;;;;;;7.07;100.00;102560.19;5202300;28;20032;-69
2021/03/16 10:38:48;;;;;;;5.85;0.80;;;;;;;7.22;100.00;102549.34;5203667;28;20025;-68
2021/03/16 10:41:20;;;;;;;3.58;0.77;;;;;;;7.24;100.00;102546.59;5203915;28;20048;-68
2021/03/16 10:43:50;;;;;;;21.73;12.60;;;;;;;7.34;100.00;102542.34;5204321;28;20164;-68
2021/03/16 10:46:21;;;;;;;17.45;12.35;;;;;;;7.28;100.00;102542.78;5203156;28;20121;-69
2021/03/16 10:48:52;;;;;;;21.95;12.13;;;;;;;7.22;100.00;102549.34;5203451;28;20204;-68
2021/03/16 10:51:22;;;;;;;9.00;3.90;;;;;;;7.18;100.00;102547.88;5203082;28;20025;-68
2021/03/16 10:53:53;;;;;;;8.25;2.63;;;;;;;6.93;100.00;102545.97;5203782;28;20433;-68
2021/03/16 10:56:23;;;;;;;9.70;3.28;;;;;;;6.83;100.00;102544.88;5202942;28;20029;-68
2021/03/16 10:58:54;;;;;;;10.07;3.65;;;;;;;6.81;100.00;102546.75;5202258;28;20044;-69
2021/03/16 11:01:24;;;;;;;13.35;3.17;;;;;;;6.62;100.00;102547.09;5202446;28;20516;-68
2021/03/16 11:03:54;;;;;;;7.85;2.47;;;;;;;6.42;100.00;102545.72;5202787;28;20394;-68
2021/03/16 11:06:25;;;;;;;10.05;3.00;;;;;;;6.52;100.00;102547.78;5202961;28;20509;-68
2021/03/16 11:08:55;;;;;;;5.55;2.60;;;;;;;6.53;100.00;102549.53;5202323;28;20033;-68
2021/03/16 11:11:26;;;;;;;8.60;2.95;;;;;;;6.78;100.00;102541.66;5201631;28;20017;-68
2021/03/16 11:13:56;;;;;;;6.22;2.55;;;;;;;6.92;100.00;102532.72;5202761;28;20025;-68
2021/03/16 11:16:27;;;;;;;5.68;2.20;;;;;;;7.11;100.00;102538.53;5202544;28;20036;-68
2021/03/16 11:18:57;;;;;;;6.85;2.72;;;;;;;7.16;100.00;102535.56;5202341;28;20060;-68
2021/03/16 11:21:28;;;;;;;4.30;2.72;;;;;;;7.10;100.00;102534.16;5202532;28;20017;-69
2021/03/16 11:23:59;;;;;;;4.43;2.35;;;;;;;7.17;100.00;102529.25;5201987;28;20057;-68
2021/03/16 11:26:29;;;;;;;7.38;2.40;;;;;;;7.27;100.00;102536.53;5202339;28;20045;-69
2021/03/16 11:29:01;;;;;;;8.98;3.60;;;;;;;7.30;100.00;102532.81;5217418;28;20402;-69
2021/03/16 11:31:31;;;;;;;9.20;2.55;;;;;;;7.29;100.00;102533.78;5202015;28;20124;-69
2021/03/16 11:34:02;;;;;;;26.42;15.00;;;;;;;7.27;100.00;102533.03;5202878;28;20437;-68
2021/03/16 11:36:32;;;;;;;12.55;6.05;;;;;;;7.11;100.00;102527.00;5202054;28;20029;-68
2021/03/16 11:39:04;;;;;;;4.90;2.78;;;;;;;7.03;100.00;102527.53;5202148;28;20113;-68
2021/03/16 11:41:34;;;;;;;10.15;4.55;;;;;;;7.04;100.00;102537.25;5201858;28;20021;-68